Terminal Aerodrome Forecast
Issued by NWS

Home | Current Version | Previous Version | Graphics & Text | Print | Product List | Glossary On
Versions: 1 2 3 4 5 6 7 8 9 10 11 12 13 14 15 16 17 18 19 20
000
FTUS42 KMHX 180900 AAA
TAFISO
TAF AMD
KISO 180925Z 1809/1906 02005KT P6SM SCT008
     FM181030 02007KT P6SM BKN007
     FM181500 03010KT P6SM OVC035
      AMD LTD TO CLD VIS AND WIND=

USA.gov is the U.S. government's official web portal to all federal, state and local government web resources and services.